createdAt,value
2023-03-21T00:00:33.243Z,98972.13
2023-03-21T00:03:01.746Z,98972.50
2023-03-21T00:05:29.957Z,98971.81
2023-03-21T00:07:59.555Z,98971.03
2023-03-21T00:10:39.507Z,98969.88
2023-03-21T00:13:13.369Z,98969.47
2023-03-21T00:16:03.988Z,98968.22
2023-03-21T00:18:36.881Z,98962.28
2023-03-21T00:21:37.520Z,98962.31
2023-03-21T00:23:54.425Z,98960.22
2023-03-21T00:26:22.764Z,98959.50
2023-03-21T00:28:52.747Z,98954.38
2023-03-21T00:31:22.279Z,98960.97
2023-03-21T00:33:51.198Z,98950.56
2023-03-21T00:36:19.387Z,98954.13
2023-03-21T00:38:47.563Z,98953.66
2023-03-21T00:41:26.306Z,98945.22
2023-03-21T00:44:04.633Z,98948.31
2023-03-21T00:46:42.775Z,98942.22
2023-03-21T00:49:13.781Z,98946.88
2023-03-21T00:51:43.751Z,98939.13
2023-03-21T00:54:12.786Z,98928.91
2023-03-21T00:56:42.446Z,98934.84
2023-03-21T00:59:12.650Z,98934.66
2023-03-21T01:01:40.780Z,98926.75
2023-03-21T01:04:13.767Z,98924.63
2023-03-21T01:06:42.628Z,98911.69
2023-03-21T01:09:13.634Z,98923.38
2023-03-21T01:11:42.199Z,98913.72
2023-03-21T01:14:22.425Z,98921.88
2023-03-21T01:16:51.842Z,98917.78
2023-03-21T01:19:27.397Z,98919.69
2023-03-21T01:21:58.238Z,98915.41
2023-03-21T01:24:26.746Z,98915.94
2023-03-21T01:26:54.882Z,98913.50
2023-03-21T01:29:24.516Z,98915.53
2023-03-21T01:31:52.693Z,98907.78
2023-03-21T01:34:20.881Z,98906.41
2023-03-21T01:36:49.388Z,98911.69
2023-03-21T01:39:21.697Z,98905.38
2023-03-21T01:41:51.641Z,98907.88
2023-03-21T01:44:27.430Z,98910.03
2023-03-21T01:47:12.737Z,98897.66
2023-03-21T01:49:48.695Z,98894.88
2023-03-21T01:52:35.929Z,98887.44
2023-03-21T01:55:12.115Z,98884.66
2023-03-21T01:58:04.851Z,98889.19
2023-03-21T02:01:00.247Z,98880.75
2023-03-21T02:03:38.598Z,98874.59
2023-03-21T02:06:31.915Z,98869.94
2023-03-21T02:09:11.291Z,98882.84
2023-03-21T02:11:40.763Z,98886.53
2023-03-21T02:14:17.739Z,98881.63
2023-03-21T02:17:04.276Z,98881.09
2023-03-21T02:19:53.869Z,98877.94
2023-03-21T02:22:34.001Z,98879.97
2023-03-21T02:25:25.613Z,98880.19
2023-03-21T02:27:57.529Z,98874.41
2023-03-21T02:30:49.017Z,98867.19
2023-03-21T02:33:42.568Z,98866.31
2023-03-21T02:36:25.753Z,98870.94
2023-03-21T02:38:57.459Z,98860.75
2023-03-21T02:41:39.558Z,98861.00
2023-03-21T02:44:11.617Z,98863.59
2023-03-21T02:46:53.785Z,98856.19
2023-03-21T02:49:30.470Z,98858.16
2023-03-21T02:52:05.411Z,98859.09
2023-03-21T02:54:48.340Z,98852.91
2023-03-21T02:57:22.800Z,98850.28
2023-03-21T02:59:56.854Z,98839.84
2023-03-21T03:02:33.502Z,98843.00
2023-03-21T03:05:06.510Z,98841.19
2023-03-21T03:07:42.239Z,98837.81
2023-03-21T03:10:24.330Z,98839.81
2023-03-21T03:12:59.733Z,98831.47
2023-03-21T03:15:35.121Z,98836.84
2023-03-21T03:18:12.288Z,98830.16
2023-03-21T03:20:47.398Z,98831.03
2023-03-21T03:23:22.375Z,98826.09
2023-03-21T03:25:53.517Z,98823.69
2023-03-21T03:28:26.717Z,98816.06
2023-03-21T03:31:08.136Z,98818.47
2023-03-21T03:33:47.383Z,98822.84
2023-03-21T03:36:30.926Z,98829.25
2023-03-21T03:39:05.669Z,98821.75
2023-03-21T03:42:02.890Z,98823.00
2023-03-21T03:44:32.267Z,98819.66
2023-03-21T03:47:07.454Z,98819.38
2023-03-21T03:49:38.735Z,98824.44
2023-03-21T03:52:09.755Z,98824.66
2023-03-21T03:54:43.786Z,98819.00
2023-03-21T03:57:14.090Z,98819.47
2023-03-21T03:59:43.088Z,98821.03
2023-03-21T04:02:23.115Z,98815.78
2023-03-21T04:04:53.088Z,98816.00
2023-03-21T04:07:22.477Z,98820.97
2023-03-21T04:09:53.576Z,98817.91
2023-03-21T04:12:23.893Z,98824.72
2023-03-21T04:15:11.015Z,98816.31
2023-03-21T04:17:45.064Z,98808.94
2023-03-21T04:20:23.555Z,98812.25
2023-03-21T04:22:58.532Z,98815.88
2023-03-21T04:25:33.932Z,98808.13
2023-03-21T04:28:06.790Z,98810.94
2023-03-21T04:30:47.084Z,98811.19
2023-03-21T04:33:25.957Z,98810.22
2023-03-21T04:35:59.270Z,98794.28
2023-03-21T04:38:31.692Z,98813.06
2023-03-21T04:41:03.650Z,98811.44
2023-03-21T04:43:33.702Z,98806.22
2023-03-21T04:46:01.966Z,98805.47
2023-03-21T04:48:30.501Z,98798.69
2023-03-21T04:51:01.037Z,98808.19
2023-03-21T04:53:30.091Z,98799.25
2023-03-21T04:55:58.758Z,98802.94
2023-03-21T04:58:27.049Z,98795.28
2023-03-21T05:00:57.505Z,98800.63
2023-03-21T05:03:25.745Z,98800.13
2023-03-21T05:05:53.887Z,98793.91
2023-03-21T05:08:22.059Z,98796.47
2023-03-21T05:10:50.094Z,98792.44
2023-03-21T05:13:18.492Z,98793.94
2023-03-21T05:15:47.090Z,98791.25
2023-03-21T05:18:25.899Z,98789.13
2023-03-21T05:21:10.780Z,98792.94
2023-03-21T05:23:41.318Z,98790.34
2023-03-21T05:26:10.138Z,98787.69
2023-03-21T05:28:44.742Z,98790.38
2023-03-21T05:31:15.968Z,98787.97
2023-03-21T05:33:47.713Z,98785.78
2023-03-21T05:36:19.357Z,98782.25
2023-03-21T05:38:47.644Z,98789.28
2023-03-21T05:41:19.213Z,98787.78
2023-03-21T05:43:48.244Z,98787.06
2023-03-21T05:46:17.262Z,98791.34
2023-03-21T05:48:47.627Z,98793.47
2023-03-21T05:51:19.551Z,98793.69
2023-03-21T05:53:48.642Z,98794.75
2023-03-21T05:56:17.685Z,98796.56
2023-03-21T05:58:51.325Z,98794.53
2023-03-21T06:01:20.613Z,98796.22
2023-03-21T06:03:58.883Z,98789.97
2023-03-21T06:06:29.544Z,98787.63
2023-03-21T06:09:01.137Z,98787.78
2023-03-21T06:11:32.180Z,98786.97
2023-03-21T06:14:15.566Z,98785.81
2023-03-21T06:16:45.572Z,98787.84
2023-03-21T06:19:15.926Z,98789.53
2023-03-21T06:22:06.976Z,98784.78
2023-03-21T06:24:38.041Z,98779.50
2023-03-21T06:27:06.426Z,98784.84
2023-03-21T06:29:47.116Z,98786.06
2023-03-21T06:32:18.636Z,98784.16
2023-03-21T06:34:49.965Z,98781.28
2023-03-21T06:37:19.060Z,98777.28
2023-03-21T06:39:48.011Z,98785.66
2023-03-21T06:42:16.234Z,98780.88
2023-03-21T06:44:44.820Z,98780.91
2023-03-21T06:47:15.896Z,98775.44
2023-03-21T06:49:46.627Z,98772.16
2023-03-21T06:52:16.463Z,98770.31
2023-03-21T06:54:44.748Z,98774.75
2023-03-21T06:57:15.559Z,98773.13
2023-03-21T06:59:43.755Z,98757.47
2023-03-21T07:02:16.804Z,98760.81
2023-03-21T07:05:08.072Z,98770.72
2023-03-21T07:07:38.831Z,98755.56
2023-03-21T07:10:07.435Z,98750.72
2023-03-21T07:12:44.338Z,98748.09
2023-03-21T07:15:22.498Z,98759.00
2023-03-21T07:17:52.328Z,98756.66
2023-03-21T07:20:20.882Z,98754.25
2023-03-21T07:22:51.536Z,98749.94
2023-03-21T07:25:20.871Z,98755.22
2023-03-21T07:27:49.726Z,98744.91
2023-03-21T07:30:19.037Z,98749.81
2023-03-21T07:32:47.780Z,98750.97
2023-03-21T07:35:18.388Z,98748.03
2023-03-21T07:37:46.954Z,98745.28
2023-03-21T07:40:19.287Z,98752.09
2023-03-21T07:42:50.037Z,98744.03
2023-03-21T07:45:29.577Z,98741.94
2023-03-21T07:47:58.526Z,98748.44
2023-03-21T07:50:26.650Z,98735.91
2023-03-21T07:52:55.349Z,98724.97
2023-03-21T07:55:24.892Z,98730.06
2023-03-21T07:57:53.668Z,98725.56
2023-03-21T08:00:24.027Z,98722.00
2023-03-21T08:02:57.917Z,98720.72
2023-03-21T08:05:27.796Z,98717.28
2023-03-21T08:07:55.951Z,98718.13
2023-03-21T08:10:25.917Z,98711.94
2023-03-21T08:12:54.070Z,98720.44
2023-03-21T08:15:22.450Z,98716.28
2023-03-21T08:17:50.528Z,98714.53
2023-03-21T08:20:21.362Z,98707.97
2023-03-21T08:22:50.213Z,98722.09
2023-03-21T08:25:19.506Z,98718.63
2023-03-21T08:27:49.513Z,98723.16
2023-03-21T08:30:19.179Z,98714.63
2023-03-21T08:32:47.274Z,98723.31
2023-03-21T08:35:16.786Z,98723.00
2023-03-21T08:37:45.041Z,98715.84
2023-03-21T08:40:14.402Z,98722.31
2023-03-21T08:42:42.876Z,98721.47
2023-03-21T08:45:13.177Z,98727.97
2023-03-21T08:47:41.884Z,98729.97
2023-03-21T08:50:17.537Z,98720.31
2023-03-21T08:52:46.267Z,98726.16
2023-03-21T08:55:15.370Z,98733.31
2023-03-21T08:57:43.977Z,98723.31
2023-03-21T09:00:15.299Z,98721.00
2023-03-21T09:02:44.311Z,98722.75
2023-03-21T09:05:13.139Z,98731.47
2023-03-21T09:07:42.343Z,98730.06
2023-03-21T09:10:20.619Z,98726.91
2023-03-21T09:12:50.148Z,98728.50
2023-03-21T09:15:22.028Z,98720.66
2023-03-21T09:17:52.998Z,98728.19
2023-03-21T09:20:26.473Z,98733.34
2023-03-21T09:22:55.348Z,98728.41
2023-03-21T09:25:23.966Z,98725.03
2023-03-21T09:27:53.933Z,98724.94
2023-03-21T09:30:26.098Z,98725.19
2023-03-21T09:32:56.059Z,98720.44
2023-03-21T09:35:27.172Z,98734.44
2023-03-21T09:37:57.289Z,98729.59
2023-03-21T09:40:41.470Z,98734.84
2023-03-21T09:43:16.660Z,98732.31
2023-03-21T09:45:51.546Z,98720.31
2023-03-21T09:48:26.102Z,98727.44
2023-03-21T09:50:54.566Z,98715.28
2023-03-21T09:53:25.447Z,98705.94
2023-03-21T09:55:54.668Z,98712.13
2023-03-21T09:58:27.369Z,98708.09
2023-03-21T10:01:01.431Z,98703.16
2023-03-21T10:03:35.243Z,98708.22
2023-03-21T10:06:05.950Z,98707.59
2023-03-21T10:08:36.646Z,98696.38
2023-03-21T10:11:08.373Z,98693.66
2023-03-21T10:13:37.372Z,98688.69
2023-03-21T10:16:12.098Z,98688.88
2023-03-21T10:18:42.206Z,98677.88
2023-03-21T10:21:37.269Z,98688.13
2023-03-21T10:24:04.635Z,98683.84
2023-03-21T10:26:32.738Z,98689.63
2023-03-21T10:29:03.187Z,98675.53
2023-03-21T10:31:33.318Z,98674.38
2023-03-21T10:34:04.303Z,98675.78
2023-03-21T10:36:34.145Z,98673.81
2023-03-21T10:39:04.629Z,98677.19
2023-03-21T10:41:33.299Z,98664.00
2023-03-21T10:44:09.001Z,98656.69
2023-03-21T10:46:39.304Z,98653.38
2023-03-21T10:49:09.307Z,98651.56
2023-03-21T10:51:38.045Z,98645.34
2023-03-21T10:54:07.691Z,98648.66
2023-03-21T10:56:37.741Z,98647.91
2023-03-21T10:59:08.344Z,98647.44
2023-03-21T11:01:38.095Z,98644.53
2023-03-21T11:04:14.168Z,98653.72
2023-03-21T11:06:44.362Z,98645.66
2023-03-21T11:09:16.505Z,98646.03
2023-03-21T11:11:51.020Z,98639.97
2023-03-21T11:14:27.547Z,98638.41
2023-03-21T11:16:56.378Z,98636.75
2023-03-21T11:19:32.003Z,98634.25
2023-03-21T11:22:00.442Z,98630.00
2023-03-21T11:24:31.506Z,98641.72
2023-03-21T11:27:01.753Z,98631.59
2023-03-21T11:29:35.059Z,98626.88
2023-03-21T11:32:10.642Z,98630.16
2023-03-21T11:34:46.198Z,98632.75
2023-03-21T11:37:21.090Z,98635.84
2023-03-21T11:39:49.276Z,98633.31
2023-03-21T11:42:28.629Z,98626.97
2023-03-21T11:45:03.202Z,98628.13
2023-03-21T11:47:31.791Z,98622.34
2023-03-21T11:50:05.294Z,98622.59
2023-03-21T11:52:39.983Z,98613.50
2023-03-21T11:55:15.535Z,98608.94
2023-03-21T11:57:45.901Z,98608.81
2023-03-21T12:00:20.928Z,98602.69
2023-03-21T12:02:59.185Z,98603.88
2023-03-21T12:05:31.419Z,98596.81
2023-03-21T12:08:04.097Z,98587.25
2023-03-21T12:10:34.298Z,98592.91
2023-03-21T12:13:06.684Z,98585.41
2023-03-21T12:15:38.598Z,98575.63
2023-03-21T12:18:14.888Z,98579.22
2023-03-21T12:20:49.089Z,98574.53
2023-03-21T12:23:27.012Z,98570.72
2023-03-21T12:25:58.135Z,98581.97
2023-03-21T12:28:35.408Z,98576.41
2023-03-21T12:31:09.212Z,98582.22
2023-03-21T12:33:52.000Z,98584.41
2023-03-21T12:36:31.010Z,98582.66
2023-03-21T12:39:04.236Z,98575.53
2023-03-21T12:41:35.961Z,98581.41
2023-03-21T12:44:05.544Z,98569.09
2023-03-21T12:46:36.771Z,98567.84
2023-03-21T12:49:10.346Z,98563.09
2023-03-21T12:51:43.331Z,98565.16
2023-03-21T12:54:16.630Z,98570.94
2023-03-21T12:56:48.749Z,98568.59
2023-03-21T12:59:24.429Z,98565.31
2023-03-21T13:01:55.403Z,98559.13
2023-03-21T13:04:36.486Z,98545.38
2023-03-21T13:07:09.571Z,98546.97
2023-03-21T13:09:38.648Z,98543.41
2023-03-21T13:12:13.150Z,98548.50
2023-03-21T13:14:47.933Z,98549.97
2023-03-21T13:17:20.799Z,98536.66
2023-03-21T13:19:52.983Z,98542.59
2023-03-21T13:22:46.556Z,98541.06
2023-03-21T13:25:21.737Z,98540.28
2023-03-21T13:27:54.338Z,98530.31
2023-03-21T13:30:26.360Z,98526.75
2023-03-21T13:33:04.739Z,98527.91
2023-03-21T13:35:38.611Z,98533.72
2023-03-21T13:38:13.037Z,98544.00
2023-03-21T13:40:45.501Z,98534.75
2023-03-21T13:43:32.286Z,98533.34
2023-03-21T13:46:06.986Z,98532.66
2023-03-21T13:48:49.393Z,98528.97
2023-03-21T13:51:43.352Z,98528.91
2023-03-21T13:54:18.931Z,98520.06
2023-03-21T13:56:52.750Z,98527.00
2023-03-21T13:59:36.474Z,98522.91
2023-03-21T14:02:16.000Z,98528.38
2023-03-21T14:05:00.188Z,98521.75
2023-03-21T14:07:34.342Z,98523.59
2023-03-21T14:10:05.184Z,98523.97
2023-03-21T14:12:38.996Z,98522.13
2023-03-21T14:15:16.357Z,98516.84
2023-03-21T14:17:51.920Z,98521.06
2023-03-21T14:20:22.232Z,98520.31
2023-03-21T14:22:51.330Z,98529.19
2023-03-21T14:25:20.426Z,98520.72
2023-03-21T14:27:50.964Z,98522.16
2023-03-21T14:30:24.574Z,98519.09
2023-03-21T14:32:55.198Z,98519.81
2023-03-21T14:35:23.954Z,98522.69
2023-03-21T14:37:52.793Z,98526.88
2023-03-21T14:40:22.769Z,98514.47
2023-03-21T14:42:52.890Z,98519.91
2023-03-21T14:45:22.303Z,98510.28
2023-03-21T14:47:57.728Z,98517.09
2023-03-21T14:50:29.928Z,98519.38
2023-03-21T14:52:58.494Z,98516.22
2023-03-21T14:55:27.511Z,98512.00
2023-03-21T14:57:57.722Z,98515.69
2023-03-21T15:00:27.823Z,98512.88
2023-03-21T15:02:56.224Z,98517.00
2023-03-21T15:05:26.798Z,98517.69
2023-03-21T15:07:56.981Z,98513.47
2023-03-21T15:10:26.574Z,98512.72
2023-03-21T15:12:55.901Z,98511.22
2023-03-21T15:15:27.609Z,98513.09
2023-03-21T15:17:58.008Z,98514.03
2023-03-21T15:20:28.202Z,98520.06
2023-03-21T15:22:57.753Z,98520.28
2023-03-21T15:25:28.293Z,98522.47
2023-03-21T15:27:57.061Z,98521.34
2023-03-21T15:30:28.090Z,98513.31
2023-03-21T15:32:56.400Z,98518.00
2023-03-21T15:35:28.252Z,98516.84
2023-03-21T15:37:57.522Z,98516.53
2023-03-21T15:40:27.365Z,98511.59
2023-03-21T15:43:05.506Z,98518.94
2023-03-21T15:45:35.208Z,98512.84
2023-03-21T15:48:05.120Z,98516.72
2023-03-21T15:50:35.643Z,98524.63
2023-03-21T15:53:05.616Z,98524.19
2023-03-21T15:55:37.265Z,98522.69
2023-03-21T15:58:07.407Z,98523.84
2023-03-21T16:00:40.184Z,98526.22
2023-03-21T16:03:11.652Z,98515.75
2023-03-21T16:05:40.138Z,98520.78
2023-03-21T16:08:19.971Z,98522.31
2023-03-21T16:10:48.990Z,98521.94
2023-03-21T16:13:17.662Z,98523.47
2023-03-21T16:15:47.220Z,98521.91
2023-03-21T16:18:16.192Z,98535.53
2023-03-21T16:20:45.382Z,98530.31
2023-03-21T16:23:13.717Z,98525.31
2023-03-21T16:25:42.386Z,98535.97
2023-03-21T16:28:13.883Z,98532.28
2023-03-21T16:30:41.990Z,98532.34
2023-03-21T16:33:13.416Z,98531.50
2023-03-21T16:35:41.798Z,98530.63
2023-03-21T16:38:10.705Z,98538.28
2023-03-21T16:40:39.908Z,98532.63
2023-03-21T16:43:08.666Z,98531.81
2023-03-21T16:45:38.947Z,98532.75
2023-03-21T16:48:09.121Z,98545.47
2023-03-21T16:50:42.401Z,98548.59
2023-03-21T16:53:10.750Z,98549.91
2023-03-21T16:55:39.316Z,98550.88
2023-03-21T16:58:07.616Z,98550.59
2023-03-21T17:00:37.156Z,98546.00
2023-03-21T17:03:13.637Z,98543.81
2023-03-21T17:05:43.228Z,98551.69
2023-03-21T17:08:14.657Z,98546.06
2023-03-21T17:10:42.968Z,98550.81
2023-03-21T17:13:11.302Z,98550.72
2023-03-21T17:15:41.629Z,98558.22
2023-03-21T17:18:11.372Z,98541.88
2023-03-21T17:20:41.748Z,98537.78
2023-03-21T17:23:12.190Z,98544.88
2023-03-21T17:25:40.498Z,98547.91
2023-03-21T17:28:08.783Z,98552.88
2023-03-21T17:30:39.998Z,98550.09
2023-03-21T17:33:08.860Z,98549.94
2023-03-21T17:35:38.020Z,98555.75
2023-03-21T17:38:08.242Z,98558.94
2023-03-21T17:40:38.153Z,98566.41
2023-03-21T17:43:07.162Z,98556.44
2023-03-21T17:45:35.411Z,98564.94
2023-03-21T17:48:03.893Z,98555.97
2023-03-21T17:50:34.441Z,98562.47
2023-03-21T17:53:02.675Z,98563.25
2023-03-21T17:55:31.618Z,98564.72
2023-03-21T17:58:01.316Z,98571.47
2023-03-21T18:00:31.047Z,98568.56
2023-03-21T18:03:00.188Z,98563.59
2023-03-21T18:05:28.724Z,98568.91
2023-03-21T18:08:12.867Z,98578.38
2023-03-21T18:10:42.439Z,98576.09
2023-03-21T18:13:12.436Z,98575.38
2023-03-21T18:15:44.856Z,98575.91
2023-03-21T18:18:13.388Z,98578.97
2023-03-21T18:20:58.412Z,98585.75
2023-03-21T18:23:26.964Z,98586.28
2023-03-21T18:25:55.536Z,98591.47
2023-03-21T18:28:25.605Z,98588.25
2023-03-21T18:31:09.004Z,98592.84
2023-03-21T18:33:40.373Z,98593.13
2023-03-21T18:36:09.354Z,98593.72
2023-03-21T18:38:37.905Z,98586.63
2023-03-21T18:41:06.251Z,98583.34
2023-03-21T18:46:24.711Z,98586.81
2023-03-21T18:48:52.994Z,98599.06
2023-03-21T18:51:22.380Z,98587.84
2023-03-21T18:53:50.485Z,98595.66
2023-03-21T18:57:05.710Z,98593.63
2023-03-21T18:59:08.679Z,98600.00
2023-03-21T19:01:39.957Z,98606.09
2023-03-21T19:04:23.072Z,98597.38
2023-03-21T19:06:57.758Z,98612.38
2023-03-21T19:09:31.363Z,98612.03
2023-03-21T19:12:00.222Z,98618.03
2023-03-21T19:14:29.824Z,98614.78
2023-03-21T19:19:48.034Z,98618.19
2023-03-21T19:22:16.202Z,98627.59
2023-03-21T19:24:44.474Z,98621.50
2023-03-21T19:27:13.369Z,98627.13
2023-03-21T19:29:43.311Z,98624.16
2023-03-21T19:32:11.551Z,98625.63
2023-03-21T19:34:39.722Z,98629.75
2023-03-21T19:37:08.110Z,98632.50
2023-03-21T19:39:36.480Z,98630.09
2023-03-21T19:42:15.956Z,98626.22
2023-03-21T19:44:47.100Z,98636.69
2023-03-21T19:47:15.445Z,98632.38
2023-03-21T19:50:29.604Z,98638.97
2023-03-21T19:52:37.379Z,98635.88
2023-03-21T19:55:06.053Z,98643.13
2023-03-21T19:57:34.873Z,98641.28
2023-03-21T20:00:05.467Z,98636.00
2023-03-21T20:02:36.090Z,98630.16
2023-03-21T20:05:04.941Z,98629.44
2023-03-21T20:07:33.241Z,98636.91
2023-03-21T20:10:01.526Z,98639.81
2023-03-21T20:12:32.353Z,98632.81
2023-03-21T20:15:16.174Z,98635.81
2023-03-21T20:17:46.588Z,98634.38
2023-03-21T20:20:15.507Z,98639.47
2023-03-21T20:23:05.614Z,98636.16
2023-03-21T20:25:32.842Z,98647.09
2023-03-21T20:28:15.076Z,98641.94
2023-03-21T20:30:48.513Z,98649.69
2023-03-21T20:33:18.111Z,98651.44
2023-03-21T20:36:29.395Z,98654.78
2023-03-21T20:38:35.678Z,98646.06
2023-03-21T20:41:05.577Z,98650.13
2023-03-21T20:46:23.876Z,98651.69
2023-03-21T20:48:53.380Z,98651.50
2023-03-21T20:54:11.279Z,98654.31
2023-03-21T20:56:39.405Z,98652.00
2023-03-21T20:59:17.699Z,98660.56
2023-03-21T21:01:52.131Z,98668.19
2023-03-21T21:04:23.040Z,98670.66
2023-03-21T21:06:55.498Z,98658.72
2023-03-21T21:09:23.602Z,98654.69
2023-03-21T21:12:09.714Z,98659.44
2023-03-21T21:14:39.116Z,98664.38
2023-03-21T21:17:26.763Z,98662.25
2023-03-21T21:19:57.091Z,98660.91
2023-03-21T21:22:25.191Z,98666.19
2023-03-21T21:24:53.300Z,98669.34
2023-03-21T21:27:21.697Z,98667.03
2023-03-21T21:29:50.107Z,98670.81
2023-03-21T21:32:19.751Z,98671.63
2023-03-21T21:34:48.083Z,98671.31
2023-03-21T21:37:17.597Z,98669.75
2023-03-21T21:39:45.767Z,98656.34
2023-03-21T21:42:13.832Z,98670.78
2023-03-21T21:44:44.648Z,98671.47
2023-03-21T21:47:13.145Z,98673.78
2023-03-21T21:49:41.353Z,98668.50
2023-03-21T21:52:13.467Z,98673.75
2023-03-21T21:54:45.887Z,98678.66
2023-03-21T21:57:14.332Z,98681.03
2023-03-21T21:59:42.457Z,98680.19
2023-03-21T22:02:11.257Z,98685.13
2023-03-21T22:04:39.847Z,98687.47
2023-03-21T22:07:14.214Z,98687.44
2023-03-21T22:09:44.570Z,98689.41
2023-03-21T22:12:12.686Z,98693.00
2023-03-21T22:14:40.834Z,98690.09
2023-03-21T22:17:09.397Z,98695.06
2023-03-21T22:19:40.042Z,98705.19
2023-03-21T22:22:08.539Z,98701.50
2023-03-21T22:24:37.598Z,98704.47
2023-03-21T22:27:07.084Z,98708.88
2023-03-21T22:29:35.276Z,98701.81
2023-03-21T22:32:03.396Z,98703.63
2023-03-21T22:34:31.562Z,98707.19
2023-03-21T22:37:00.154Z,98714.69
2023-03-21T22:39:28.776Z,98716.91
2023-03-21T22:41:58.001Z,98722.03
2023-03-21T22:44:28.146Z,98722.19
2023-03-21T22:46:56.401Z,98720.38
2023-03-21T22:49:24.497Z,98724.22
2023-03-21T22:51:53.556Z,98724.72
2023-03-21T22:54:21.784Z,98722.25
2023-03-21T22:56:49.926Z,98723.50
2023-03-21T22:59:18.073Z,98732.78
2023-03-21T23:01:47.685Z,98721.47
2023-03-21T23:04:15.985Z,98725.84
2023-03-21T23:06:44.475Z,98733.72
2023-03-21T23:09:12.753Z,98734.16
2023-03-21T23:11:43.083Z,98728.47
2023-03-21T23:14:13.763Z,98737.88
2023-03-21T23:16:42.981Z,98732.59
2023-03-21T23:19:12.957Z,98734.13
2023-03-21T23:21:41.481Z,98728.66
2023-03-21T23:24:09.862Z,98738.25
2023-03-21T23:26:37.976Z,98744.06
2023-03-21T23:29:08.085Z,98737.56
2023-03-21T23:31:36.375Z,98741.53
2023-03-21T23:34:04.750Z,98741.34
2023-03-21T23:36:34.339Z,98741.16
2023-03-21T23:39:02.534Z,98734.56
2023-03-21T23:41:30.753Z,98743.16
2023-03-21T23:43:58.909Z,98746.19
2023-03-21T23:46:27.033Z,98746.84
2023-03-21T23:48:55.181Z,98741.16
2023-03-21T23:51:23.353Z,98739.38
2023-03-21T23:53:53.537Z,98742.09
2023-03-21T23:56:23.168Z,98744.88
2023-03-21T23:58:51.458Z,98739.41
